Weather at Centennial Airport

Public forecast

Using degrees Fahrenheit for public forecast. Weather courtesy of forecast.io.

Current aviation weather report (METAR) for Centennial Airport

2024/05/29 18:53 (retrieved 24 minutes ago)

KAPA 291853Z 18008KT 10SM SCT100 BKN140 BKN200 27/02 A3001 RMK AO2 SLP094 VIRGA DSNT W-N T02670022

Aviation forecast (TAF) for Centennial Airport

2024/05/29 18:39 (retrieved 38 minutes ago)

TAF KAPA 291736Z 2918/3018 21012KT P6SM FEW090 SCT140 FM292000 21013G22KT P6SM VCTS SCT090 SCT140CB TEMPO 2920/2924 VRB20G35KT FM300100 21015KT P6SM FEW090 SCT140 FM300400 18011KT P6SM FEW090 SCT140